sensor_id;sensor_type;location;lat;lon;timestamp;pressure;altitude;pressure_sealevel;temperature;humidity
5126;BME280;63008;53.112;8.896;2023-08-30T00:01:37;100703.31;;;13.82;100.00
5126;BME280;63008;53.112;8.896;2023-08-30T00:03:38;100701.88;;;13.88;100.00
5126;BME280;63008;53.112;8.896;2023-08-30T00:05:40;100698.78;;;13.90;100.00
5126;BME280;63008;53.112;8.896;2023-08-30T00:07:41;100691.75;;;13.92;100.00
5126;BME280;63008;53.112;8.896;2023-08-30T00:09:42;100693.16;;;14.02;100.00
5126;BME280;63008;53.112;8.896;2023-08-30T00:11:43;100688.53;;;14.06;100.00
5126;BME280;63008;53.112;8.896;2023-08-30T00:13:44;100684.69;;;14.10;100.00
5126;BME280;63008;53.112;8.896;2023-08-30T00:15:45;100693.03;;;14.14;100.00
5126;BME280;63008;53.112;8.896;2023-08-30T00:17:46;100687.81;;;14.09;100.00
5126;BME280;63008;53.112;8.896;2023-08-30T00:19:48;100685.59;;;13.99;100.00
5126;BME280;63008;53.112;8.896;2023-08-30T00:21:49;100682.31;;;13.93;100.00
5126;BME280;63008;53.112;8.896;2023-08-30T00:23:50;100683.81;;;13.91;100.00
5126;BME280;63008;53.112;8.896;2023-08-30T00:25:51;100688.53;;;13.90;100.00
5126;BME280;63008;53.112;8.896;2023-08-30T00:27:52;100691.38;;;13.94;100.00
5126;BME280;63008;53.112;8.896;2023-08-30T00:29:53;100697.28;;;13.92;100.00
5126;BME280;63008;53.112;8.896;2023-08-30T00:31:54;100684.63;;;13.91;100.00
5126;BME280;63008;53.112;8.896;2023-08-30T00:33:55;100685.25;;;14.00;100.00
5126;BME280;63008;53.112;8.896;2023-08-30T00:35:57;100676.16;;;14.00;100.00
5126;BME280;63008;53.112;8.896;2023-08-30T00:37:59;100682.47;;;14.00;100.00
5126;BME280;63008;53.112;8.896;2023-08-30T00:40:00;100677.31;;;13.99;100.00
5126;BME280;63008;53.112;8.896;2023-08-30T00:42:01;100675.00;;;14.01;100.00
5126;BME280;63008;53.112;8.896;2023-08-30T00:44:05;100667.66;;;14.08;100.00
5126;BME280;63008;53.112;8.896;2023-08-30T00:46:06;100674.81;;;14.09;100.00
5126;BME280;63008;53.112;8.896;2023-08-30T00:48:07;100670.09;;;14.10;100.00
5126;BME280;63008;53.112;8.896;2023-08-30T00:50:09;100674.72;;;14.06;100.00
5126;BME280;63008;53.112;8.896;2023-08-30T00:52:10;100675.78;;;14.01;100.00
5126;BME280;63008;53.112;8.896;2023-08-30T00:54:11;100677.69;;;13.97;100.00
5126;BME280;63008;53.112;8.896;2023-08-30T00:56:12;100676.97;;;14.00;100.00
5126;BME280;63008;53.112;8.896;2023-08-30T00:58:13;100673.38;;;14.00;100.00
5126;BME280;63008;53.112;8.896;2023-08-30T01:00:14;100678.56;;;14.01;100.00
5126;BME280;63008;53.112;8.896;2023-08-30T01:02:15;100679.00;;;14.03;100.00
5126;BME280;63008;53.112;8.896;2023-08-30T01:04:16;100674.81;;;14.09;100.00
5126;BME280;63008;53.112;8.896;2023-08-30T01:06:18;100679.97;;;14.11;100.00
5126;BME280;63008;53.112;8.896;2023-08-30T01:08:19;100669.56;;;14.04;100.00
5126;BME280;63008;53.112;8.896;2023-08-30T01:10:27;100673.13;;;14.05;100.00
5126;BME280;63008;53.112;8.896;2023-08-30T01:12:40;100673.38;;;14.00;100.00
5126;BME280;63008;53.112;8.896;2023-08-30T01:14:52;100669.84;;;13.99;100.00
5126;BME280;63008;53.112;8.896;2023-08-30T01:16:54;100670.72;;;14.03;100.00
5126;BME280;63008;53.112;8.896;2023-08-30T01:18:59;100661.72;;;14.06;100.00
5126;BME280;63008;53.112;8.896;2023-08-30T01:21:08;100667.41;;;14.13;100.00
5126;BME280;63008;53.112;8.896;2023-08-30T01:23:23;100663.06;;;14.12;100.00
5126;BME280;63008;53.112;8.896;2023-08-30T01:27:35;100663.50;;;14.14;100.00
5126;BME280;63008;53.112;8.896;2023-08-30T01:29:38;100663.16;;;14.16;100.00
5126;BME280;63008;53.112;8.896;2023-08-30T01:31:42;100658.44;;;14.16;100.00
5126;BME280;63008;53.112;8.896;2023-08-30T01:33:44;100659.13;;;14.13;100.00
5126;BME280;63008;53.112;8.896;2023-08-30T01:35:46;100656.13;;;14.18;100.00
5126;BME280;63008;53.112;8.896;2023-08-30T01:37:48;100651.84;;;14.21;100.00
5126;BME280;63008;53.112;8.896;2023-08-30T01:39:50;100662.25;;;14.27;100.00
5126;BME280;63008;53.112;8.896;2023-08-30T01:41:52;100664.75;;;14.17;100.00
5126;BME280;63008;53.112;8.896;2023-08-30T01:43:59;100654.88;;;14.16;100.00
5126;BME280;63008;53.112;8.896;2023-08-30T01:46:05;100658.16;;;14.21;100.00
5126;BME280;63008;53.112;8.896;2023-08-30T01:48:09;100663.75;;;14.25;100.00
5126;BME280;63008;53.112;8.896;2023-08-30T01:50:12;100655.84;;;14.23;100.00
5126;BME280;63008;53.112;8.896;2023-08-30T01:52:13;100661.16;;;14.32;100.00
5126;BME280;63008;53.112;8.896;2023-08-30T01:54:17;100663.38;;;14.26;100.00
5126;BME280;63008;53.112;8.896;2023-08-30T01:56:19;100661.44;;;14.27;100.00
5126;BME280;63008;53.112;8.896;2023-08-30T01:58:20;100657.72;;;14.19;100.00
5126;BME280;63008;53.112;8.896;2023-08-30T02:00:21;100657.72;;;14.19;100.00
5126;BME280;63008;53.112;8.896;2023-08-30T02:02:22;100655.47;;;14.25;100.00
5126;BME280;63008;53.112;8.896;2023-08-30T02:04:23;100643.28;;;14.26;100.00
5126;BME280;63008;53.112;8.896;2023-08-30T02:08:55;100645.50;;;14.36;100.00
5126;BME280;63008;53.112;8.896;2023-08-30T02:11:01;100644.47;;;14.44;100.00
5126;BME280;63008;53.112;8.896;2023-08-30T02:13:04;100644.75;;;14.39;100.00
5126;BME280;63008;53.112;8.896;2023-08-30T02:15:07;100647.09;;;14.37;100.00
5126;BME280;63008;53.112;8.896;2023-08-30T02:17:09;100653.09;;;14.42;100.00
5126;BME280;63008;53.112;8.896;2023-08-30T02:19:10;100656.91;;;14.53;100.00
5126;BME280;63008;53.112;8.896;2023-08-30T02:21:12;100657.25;;;14.52;100.00
5126;BME280;63008;53.112;8.896;2023-08-30T02:23:13;100654.13;;;14.53;100.00
5126;BME280;63008;53.112;8.896;2023-08-30T02:25:14;100656.91;;;14.53;100.00
5126;BME280;63008;53.112;8.896;2023-08-30T02:27:15;100664.75;;;14.51;100.00
5126;BME280;63008;53.112;8.896;2023-08-30T02:29:16;100657.00;;;14.57;100.00
5126;BME280;63008;53.112;8.896;2023-08-30T02:31:17;100652.41;;;14.64;100.00
5126;BME280;63008;53.112;8.896;2023-08-30T02:33:18;100655.88;;;14.61;100.00
5126;BME280;63008;53.112;8.896;2023-08-30T02:35:19;100665.84;;;14.65;100.00
5126;BME280;63008;53.112;8.896;2023-08-30T02:37:20;100650.44;;;14.64;100.00
5126;BME280;63008;53.112;8.896;2023-08-30T02:39:21;100651.97;;;14.62;100.00
5126;BME280;63008;53.112;8.896;2023-08-30T02:41:22;100649.22;;;14.62;100.00
5126;BME280;63008;53.112;8.896;2023-08-30T02:43:23;100649.22;;;14.62;100.00
5126;BME280;63008;53.112;8.896;2023-08-30T02:45:24;100648.75;;;14.60;100.00
5126;BME280;63008;53.112;8.896;2023-08-30T02:47:25;100648.75;;;14.60;100.00
5126;BME280;63008;53.112;8.896;2023-08-30T02:49:26;100646.47;;;14.62;100.00
5126;BME280;63008;53.112;8.896;2023-08-30T02:51:27;100636.31;;;14.69;100.00
5126;BME280;63008;53.112;8.896;2023-08-30T02:53:28;100639.81;;;14.66;100.00
5126;BME280;63008;53.112;8.896;2023-08-30T02:55:30;100639.38;;;14.64;100.00
5126;BME280;63008;53.112;8.896;2023-08-30T02:57:31;100640.19;;;14.65;100.00
5126;BME280;63008;53.112;8.896;2023-08-30T02:59:32;100641.72;;;14.63;100.00
5126;BME280;63008;53.112;8.896;2023-08-30T03:01:33;100644.34;;;14.74;100.00
5126;BME280;63008;53.112;8.896;2023-08-30T03:03:34;100636.31;;;14.69;100.00
5126;BME280;63008;53.112;8.896;2023-08-30T03:05:36;100633.94;;;14.68;100.00
5126;BME280;63008;53.112;8.896;2023-08-30T03:07:36;100633.13;;;14.67;100.00
5126;BME280;63008;53.112;8.896;2023-08-30T03:09:37;100635.09;;;14.67;100.00
5126;BME280;63008;53.112;8.896;2023-08-30T03:11:39;100633.44;;;14.63;100.00
5126;BME280;63008;53.112;8.896;2023-08-30T03:13:40;100632.19;;;14.60;100.00
5126;BME280;63008;53.112;8.896;2023-08-30T03:15:41;100620.44;;;14.63;100.00
5126;BME280;63008;53.112;8.896;2023-08-30T03:17:42;100624.06;;;14.67;100.00
5126;BME280;63008;53.112;8.896;2023-08-30T03:19:43;100634.03;;;14.71;100.00
5126;BME280;63008;53.112;8.896;2023-08-30T03:21:44;100630.75;;;14.66;100.00
5126;BME280;63008;53.112;8.896;2023-08-30T03:23:45;100631.19;;;14.68;100.00
5126;BME280;63008;53.112;8.896;2023-08-30T03:25:46;100636.31;;;14.69;100.00
5126;BME280;63008;53.112;8.896;2023-08-30T03:27:47;100630.44;;;14.71;100.00
5126;BME280;63008;53.112;8.896;2023-08-30T03:29:48;100628.53;;;14.75;100.00
5126;BME280;63008;53.112;8.896;2023-08-30T03:31:49;100620.22;;;14.71;100.00
5126;BME280;63008;53.112;8.896;2023-08-30T03:33:50;100622.50;;;14.69;100.00
5126;BME280;63008;53.112;8.896;2023-08-30T03:35:51;100628.03;;;14.69;100.00
5126;BME280;63008;53.112;8.896;2023-08-30T03:37:52;100618.53;;;14.67;100.00
5126;BME280;63008;53.112;8.896;2023-08-30T03:39:53;100621.28;;;14.67;100.00
5126;BME280;63008;53.112;8.896;2023-08-30T03:41:54;100615.38;;;14.68;100.00
5126;BME280;63008;53.112;8.896;2023-08-30T03:43:55;100618.88;;;14.65;100.00
5126;BME280;63008;53.112;8.896;2023-08-30T03:45:55;100616.78;;;14.59;100.00
5126;BME280;63008;53.112;8.896;2023-08-30T03:47:57;100605.69;;;14.56;100.00
5126;BME280;63008;53.112;8.896;2023-08-30T03:49:58;100608.06;;;14.57;100.00
5126;BME280;63008;53.112;8.896;2023-08-30T03:51:59;100606.03;;;14.54;100.00
5126;BME280;63008;53.112;8.896;2023-08-30T03:54:00;100611.47;;;14.51;100.00
5126;BME280;63008;53.112;8.896;2023-08-30T03:56:01;100608.28;;;14.49;100.00
5126;BME280;63008;53.112;8.896;2023-08-30T03:58:04;100612.84;;;14.41;100.00
5126;BME280;63008;53.112;8.896;2023-08-30T04:00:05;100607.75;;;14.43;100.00
5126;BME280;63008;53.112;8.896;2023-08-30T04:02:06;100610.97;;;14.45;100.00
5126;BME280;63008;53.112;8.896;2023-08-30T04:04:07;100617.19;;;14.42;100.00
5126;BME280;63008;53.112;8.896;2023-08-30T04:06:08;100604.56;;;14.41;100.00
5126;BME280;63008;53.112;8.896;2023-08-30T04:08:09;100603.25;;;14.35;100.00
5126;BME280;63008;53.112;8.896;2023-08-30T04:10:10;100602.81;;;14.33;100.00
5126;BME280;63008;53.112;8.896;2023-08-30T04:12:11;100603.19;;;14.32;100.00
5126;BME280;63008;53.112;8.896;2023-08-30T04:14:12;100607.53;;;14.33;100.00
5126;BME280;63008;53.112;8.896;2023-08-30T04:16:13;100601.56;;;14.31;100.00
5126;BME280;63008;53.112;8.896;2023-08-30T04:18:14;100604.34;;;14.31;100.00
5126;BME280;63008;53.112;8.896;2023-08-30T04:20:15;100602.75;;;14.30;100.00
5126;BME280;63008;53.112;8.896;2023-08-30T04:22:16;100604.34;;;14.31;100.00
5126;BME280;63008;53.112;8.896;2023-08-30T04:24:17;100599.19;;;14.29;100.00
5126;BME280;63008;53.112;8.896;2023-08-30T04:26:18;100599.19;;;14.29;100.00
5126;BME280;63008;53.112;8.896;2023-08-30T04:28:19;100595.28;;;14.30;100.00
5126;BME280;63008;53.112;8.896;2023-08-30T04:30:20;100590.19;;;14.32;100.00
5126;BME280;63008;53.112;8.896;2023-08-30T04:32:21;100600.06;;;14.33;100.00
5126;BME280;63008;53.112;8.896;2023-08-30T04:34:22;100600.78;;;14.30;100.00
5126;BME280;63008;53.112;8.896;2023-08-30T04:36:23;100598.69;;;14.24;100.00
5126;BME280;63008;53.112;8.896;2023-08-30T04:38:24;100599.47;;;14.24;100.00
5126;BME280;63008;53.112;8.896;2023-08-30T04:40:25;100596.69;;;14.24;100.00
5126;BME280;63008;53.112;8.896;2023-08-30T04:42:26;100597.44;;;14.21;100.00
5126;BME280;63008;53.112;8.896;2023-08-30T04:44:27;100595.09;;;14.23;100.00
5126;BME280;63008;53.112;8.896;2023-08-30T04:46:28;100593.59;;;14.26;100.00
5126;BME280;63008;53.112;8.896;2023-08-30T04:48:32;100588.50;;;14.28;100.00
5126;BME280;63008;53.112;8.896;2023-08-30T04:50:33;100588.06;;;14.26;100.00
5126;BME280;63008;53.112;8.896;2023-08-30T04:52:34;100586.03;;;14.23;100.00
5126;BME280;63008;53.112;8.896;2023-08-30T04:54:35;100595.47;;;14.22;100.00
5126;BME280;63008;53.112;8.896;2023-08-30T04:56:36;100586.81;;;14.23;100.00
5126;BME280;63008;53.112;8.896;2023-08-30T04:58:37;100588.06;;;14.26;100.00
5126;BME280;63008;53.112;8.896;2023-08-30T05:00:38;100591.19;;;14.24;100.00
5126;BME280;63008;53.112;8.896;2023-08-30T05:02:39;100578.31;;;14.32;100.00
5126;BME280;63008;53.112;8.896;2023-08-30T05:04:40;100585.41;;;14.29;100.00
5126;BME280;63008;53.112;8.896;2023-08-30T05:06:40;100584.22;;;14.30;100.00
5126;BME280;63008;53.112;8.896;2023-08-30T05:08:42;100573.69;;;14.36;100.00
5126;BME280;63008;53.112;8.896;2023-08-30T05:10:43;100577.25;;;14.36;100.00
5126;BME280;63008;53.112;8.896;2023-08-30T05:12:44;100570.56;;;14.37;100.00
5126;BME280;63008;53.112;8.896;2023-08-30T05:14:48;100575.66;;;14.35;100.00
5126;BME280;63008;53.112;8.896;2023-08-30T05:16:50;100572.53;;;14.37;100.00
5126;BME280;63008;53.112;8.896;2023-08-30T05:18:50;100568.19;;;14.36;100.00
5126;BME280;63008;53.112;8.896;2023-08-30T05:20:51;100572.03;;;14.31;100.00
5126;BME280;63008;53.112;8.896;2023-08-30T05:22:52;100578.28;;;14.28;100.00
5126;BME280;63008;53.112;8.896;2023-08-30T05:24:53;100569.25;;;14.31;100.00
5126;BME280;63008;53.112;8.896;2023-08-30T05:26:54;100568.09;;;14.32;100.00
5126;BME280;63008;53.112;8.896;2023-08-30T05:28:55;100568.53;;;14.34;100.00
5126;BME280;63008;53.112;8.896;2023-08-30T05:30:57;100573.69;;;14.36;100.00
5126;BME280;63008;53.112;8.896;2023-08-30T05:32:57;100571.06;;;14.43;100.00
5126;BME280;63008;53.112;8.896;2023-08-30T05:34:58;100576.94;;;14.41;100.00
5126;BME280;63008;53.112;8.896;2023-08-30T05:36:59;100573.09;;;14.46;100.00
5126;BME280;63008;53.112;8.896;2023-08-30T05:39:00;100570.34;;;14.46;100.00
5126;BME280;63008;53.112;8.896;2023-08-30T05:41:01;100556.63;;;14.49;100.00
5126;BME280;63008;53.112;8.896;2023-08-30T05:43:03;100564.09;;;14.49;100.00
5126;BME280;63008;53.112;8.896;2023-08-30T05:45:04;100565.09;;;14.60;100.00
5126;BME280;63008;53.112;8.896;2023-08-30T05:47:05;100567.06;;;14.59;100.00
5126;BME280;63008;53.112;8.896;2023-08-30T05:49:06;100568.31;;;14.62;100.00
5126;BME280;63008;53.112;8.896;2023-08-30T05:51:07;100562.44;;;14.63;100.00
5126;BME280;63008;53.112;8.896;2023-08-30T05:53:08;100563.72;;;14.69;100.00
5126;BME280;63008;53.112;8.896;2023-08-30T05:55:09;100565.66;;;14.68;100.00
5126;BME280;63008;53.112;8.896;2023-08-30T05:57:10;100566.47;;;14.69;100.00
5126;BME280;63008;53.112;8.896;2023-08-30T05:59:11;100559.44;;;14.71;100.00
5126;BME280;63008;53.112;8.896;2023-08-30T06:01:12;100569.00;;;14.77;100.00
5126;BME280;63008;53.112;8.896;2023-08-30T06:03:13;100566.59;;;14.76;100.00
5126;BME280;63008;53.112;8.896;2023-08-30T06:05:14;100565.94;;;14.82;100.00
5126;BME280;63008;53.112;8.896;2023-08-30T06:07:15;100559.63;;;14.82;100.00
5126;BME280;63008;53.112;8.896;2023-08-30T06:09:16;100567.91;;;14.82;100.00
5126;BME280;63008;53.112;8.896;2023-08-30T06:11:17;100556.97;;;14.89;100.00
5126;BME280;63008;53.112;8.896;2023-08-30T06:13:18;100556.69;;;14.94;100.00
5126;BME280;63008;53.112;8.896;2023-08-30T06:15:19;100556.25;;;14.92;100.00
5126;BME280;63008;53.112;8.896;2023-08-30T06:17:21;100550.38;;;14.93;100.00
5126;BME280;63008;53.112;8.896;2023-08-30T06:19:22;100546.03;;;14.96;100.00
5126;BME280;63008;53.112;8.896;2023-08-30T06:21:23;100545.63;;;14.94;100.00
5126;BME280;63008;53.112;8.896;2023-08-30T06:23:24;100541.69;;;14.95;100.00
5126;BME280;63008;53.112;8.896;2023-08-30T06:25:25;100544.09;;;14.96;100.00
5126;BME280;63008;53.112;8.896;2023-08-30T06:27:26;100551.22;;;14.97;100.00
5126;BME280;63008;53.112;8.896;2023-08-30T06:29:27;100543.34;;;14.99;100.00
5126;BME280;63008;53.112;8.896;2023-08-30T06:31:27;100546.13;;;14.99;100.00
5126;BME280;63008;53.112;8.896;2023-08-30T06:33:29;100540.59;;;14.99;100.00
5126;BME280;63008;53.112;8.896;2023-08-30T06:35:30;100546.63;;;15.05;100.00
5126;BME280;63008;53.112;8.896;2023-08-30T06:37:31;100546.97;;;15.03;100.00
5126;BME280;63008;53.112;8.896;2023-08-30T06:39:33;100546.53;;;15.01;100.00
5126;BME280;63008;53.112;8.896;2023-08-30T06:41:35;100544.22;;;15.03;100.00
5126;BME280;63008;53.112;8.896;2023-08-30T06:43:37;100547.03;;;15.07;100.00
5126;BME280;63008;53.112;8.896;2023-08-30T06:45:38;100545.56;;;15.13;100.00
5126;BME280;63008;53.112;8.896;2023-08-30T06:47:39;100539.00;;;15.21;100.00
5126;BME280;63008;53.112;8.896;2023-08-30T06:49:40;100538.25;;;15.24;100.00
5126;BME280;63008;53.112;8.896;2023-08-30T06:51:41;100531.97;;;15.27;100.00
5126;BME280;63008;53.112;8.896;2023-08-30T06:53:42;100533.69;;;15.31;100.00
5126;BME280;63008;53.112;8.896;2023-08-30T06:55:43;100535.81;;;15.41;100.00
5126;BME280;63008;53.112;8.896;2023-08-30T06:57:47;100541.78;;;15.43;100.00
5126;BME280;63008;53.112;8.896;2023-08-30T06:59:49;100534.69;;;15.46;100.00
5126;BME280;63008;53.112;8.896;2023-08-30T07:01:50;100536.28;;;15.47;100.00
5126;BME280;63008;53.112;8.896;2023-08-30T07:03:51;100532.41;;;15.51;100.00
5126;BME280;63008;53.112;8.896;2023-08-30T07:05:52;100534.84;;;15.56;100.00
5126;BME280;63008;53.112;8.896;2023-08-30T07:07:53;100533.25;;;15.55;100.00
5126;BME280;63008;53.112;8.896;2023-08-30T07:09:54;100533.38;;;15.62;100.00
5126;BME280;63008;53.112;8.896;2023-08-30T07:11:55;100531.81;;;15.65;100.00
5126;BME280;63008;53.112;8.896;2023-08-30T07:13:56;100533.13;;;15.71;100.00
5126;BME280;63008;53.112;8.896;2023-08-30T07:15:57;100537.16;;;15.77;100.00
5126;BME280;63008;53.112;8.896;2023-08-30T07:17:58;100541.19;;;15.83;100.00
5126;BME280;63008;53.112;8.896;2023-08-30T07:19:59;100543.25;;;15.89;100.00
5126;BME280;63008;53.112;8.896;2023-08-30T07:22:00;100541.38;;;15.97;100.00
5126;BME280;63008;53.112;8.896;2023-08-30T07:24:02;100539.03;;;15.99;100.00
5126;BME280;63008;53.112;8.896;2023-08-30T07:26:03;100539.97;;;16.10;100.00
5126;BME280;63008;53.112;8.896;2023-08-30T07:28:05;100546.47;;;16.21;100.00
5126;BME280;63008;53.112;8.896;2023-08-30T07:30:07;100545.72;;;16.24;99.90
5126;BME280;63008;53.112;8.896;2023-08-30T07:32:08;100537.91;;;16.33;99.14
5126;BME280;63008;53.112;8.896;2023-08-30T07:34:09;100532.75;;;16.31;98.84
5126;BME280;63008;53.112;8.896;2023-08-30T07:36:10;100535.22;;;16.36;98.75
5126;BME280;63008;53.112;8.896;2023-08-30T07:38:12;100535.94;;;16.33;97.20
5126;BME280;63008;53.112;8.896;2023-08-30T07:40:13;100529.56;;;16.29;96.48
5126;BME280;63008;53.112;8.896;2023-08-30T07:42:14;100538.34;;;16.35;95.50
5126;BME280;63008;53.112;8.896;2023-08-30T07:44:15;100535.69;;;16.45;94.90
5126;BME280;63008;53.112;8.896;2023-08-30T07:46:16;100527.84;;;16.47;93.78
5126;BME280;63008;53.112;8.896;2023-08-30T07:48:17;100529.44;;;16.52;94.05
5126;BME280;63008;53.112;8.896;2023-08-30T07:50:18;100530.31;;;16.59;93.87
5126;BME280;63008;53.112;8.896;2023-08-30T07:52:19;100533.97;;;16.66;93.48
5126;BME280;63008;53.112;8.896;2023-08-30T07:54:20;100534.78;;;16.70;90.09
5126;BME280;63008;53.112;8.896;2023-08-30T07:56:21;100539.22;;;16.75;90.08
5126;BME280;63008;53.112;8.896;2023-08-30T07:58:22;100536.91;;;16.80;89.50
5126;BME280;63008;53.112;8.896;2023-08-30T08:00:23;100537.31;;;16.82;87.11
5126;BME280;63008;53.112;8.896;2023-08-30T08:02:24;100529.41;;;16.84;87.44
5126;BME280;63008;53.112;8.896;2023-08-30T08:04:25;100530.28;;;16.92;86.46
5126;BME280;63008;53.112;8.896;2023-08-30T08:06:26;100535.47;;;16.97;86.90
5126;BME280;63008;53.112;8.896;2023-08-30T08:08:27;100538.31;;;17.04;87.78
5126;BME280;63008;53.112;8.896;2023-08-30T08:10:32;100543.16;;;17.10;86.77
5126;BME280;63008;53.112;8.896;2023-08-30T08:12:34;100547.97;;;17.17;87.35
5126;BME280;63008;53.112;8.896;2023-08-30T08:14:35;100546.00;;;17.21;83.95
5126;BME280;63008;53.112;8.896;2023-08-30T08:16:36;100548.84;;;17.28;82.10
5126;BME280;63008;53.112;8.896;2023-08-30T08:18:37;100546.47;;;17.30;82.28
5126;BME280;63008;53.112;8.896;2023-08-30T08:20:38;100554.13;;;17.40;83.17
5126;BME280;63008;53.112;8.896;2023-08-30T08:22:40;100543.41;;;17.38;80.72
5126;BME280;63008;53.112;8.896;2023-08-30T08:24:41;100546.63;;;17.44;81.29
5126;BME280;63008;53.112;8.896;2023-08-30T08:26:41;100541.56;;;17.53;78.89
5126;BME280;63008;53.112;8.896;2023-08-30T08:28:42;100541.97;;;17.58;78.20
5126;BME280;63008;53.112;8.896;2023-08-30T08:30:44;100555.50;;;17.63;76.79
5126;BME280;63008;53.112;8.896;2023-08-30T08:32:46;100540.44;;;17.64;75.34
5126;BME280;63008;53.112;8.896;2023-08-30T08:34:48;100539.72;;;17.78;76.02
5126;BME280;63008;53.112;8.896;2023-08-30T08:36:49;100539.03;;;17.95;76.61
5126;BME280;63008;53.112;8.896;2023-08-30T08:38:50;100536.63;;;17.86;76.29
5126;BME280;63008;53.112;8.896;2023-08-30T08:40:53;100545.34;;;17.88;74.71
5126;BME280;63008;53.112;8.896;2023-08-30T08:43:01;100543.78;;;17.94;73.55
5126;BME280;63008;53.112;8.896;2023-08-30T08:45:03;100553.00;;;18.05;72.39
5126;BME280;63008;53.112;8.896;2023-08-30T08:47:05;100549.47;;;18.19;72.37
5126;BME280;63008;53.112;8.896;2023-08-30T08:49:11;100540.91;;;18.45;72.80
5126;BME280;63008;53.112;8.896;2023-08-30T08:51:12;100541.75;;;18.59;72.03
5126;BME280;63008;53.112;8.896;2023-08-30T08:53:14;100546.13;;;18.63;70.02
5126;BME280;63008;53.112;8.896;2023-08-30T08:55:16;100543.69;;;18.48;69.39
5126;BME280;63008;53.112;8.896;2023-08-30T08:57:17;100544.50;;;18.48;71.13
5126;BME280;63008;53.112;8.896;2023-08-30T08:59:19;100540.13;;;18.51;70.10
5126;BME280;63008;53.112;8.896;2023-08-30T09:01:20;100533.34;;;18.45;70.82
5126;BME280;63008;53.112;8.896;2023-08-30T09:03:21;100537.38;;;18.51;70.29
5126;BME280;63008;53.112;8.896;2023-08-30T09:05:23;100531.81;;;18.51;70.78
5126;BME280;63008;53.112;8.896;2023-08-30T09:07:25;100537.38;;;18.58;71.38
5126;BME280;63008;53.112;8.896;2023-08-30T09:09:26;100543.38;;;18.67;70.30
5126;BME280;63008;53.112;8.896;2023-08-30T09:11:27;100537.41;;;18.68;69.52
5126;BME280;63008;53.112;8.896;2023-08-30T09:13:28;100536.66;;;18.78;69.59
5126;BME280;63008;53.112;8.896;2023-08-30T09:15:32;100530.28;;;18.81;69.46
5126;BME280;63008;53.112;8.896;2023-08-30T09:17:37;100533.06;;;18.81;69.79
5126;BME280;63008;53.112;8.896;2023-08-30T09:19:38;100539.44;;;18.89;68.63
5126;BME280;63008;53.112;8.896;2023-08-30T09:21:56;100542.66;;;19.05;68.02
5126;BME280;63008;53.112;8.896;2023-08-30T09:24:03;100537.53;;;19.38;66.01
5126;BME280;63008;53.112;8.896;2023-08-30T09:26:04;100538.31;;;19.74;64.33
5126;BME280;63008;53.112;8.896;2023-08-30T09:28:05;100533.88;;;19.94;63.68
5126;BME280;63008;53.112;8.896;2023-08-30T09:30:06;100537.88;;;19.72;63.04
5126;BME280;63008;53.112;8.896;2023-08-30T09:32:09;100545.03;;;19.87;64.63
5126;BME280;63008;53.112;8.896;2023-08-30T09:34:10;100546.19;;;20.10;64.09
5126;BME280;63008;53.112;8.896;2023-08-30T09:36:12;100546.16;;;20.24;62.31
5126;BME280;63008;53.112;8.896;2023-08-30T09:38:17;100543.22;;;20.59;61.91
5126;BME280;63008;53.112;8.896;2023-08-30T09:40:19;100541.53;;;20.75;60.34
5126;BME280;63008;53.112;8.896;2023-08-30T09:42:20;100550.66;;;20.90;60.89
5126;BME280;63008;53.112;8.896;2023-08-30T09:44:21;100547.03;;;20.96;58.50
5126;BME280;63008;53.112;8.896;2023-08-30T09:46:22;100536.81;;;20.69;61.30
5126;BME280;63008;53.112;8.896;2023-08-30T09:48:31;100549.13;;;20.68;58.94
5126;BME280;63008;53.112;8.896;2023-08-30T09:50:34;100539.56;;;20.72;58.46
5126;BME280;63008;53.112;8.896;2023-08-30T09:52:36;100542.31;;;20.79;59.17
5126;BME280;63008;53.112;8.896;2023-08-30T09:54:39;100540.75;;;20.68;59.73
5126;BME280;63008;53.112;8.896;2023-08-30T09:56:42;100530.31;;;20.89;58.34
5126;BME280;63008;53.112;8.896;2023-08-30T09:58:44;100533.31;;;21.19;57.17
5126;BME280;63008;53.112;8.896;2023-08-30T10:00:45;100535.00;;;21.54;56.55
5126;BME280;63008;53.112;8.896;2023-08-30T10:02:47;100528.09;;;21.69;56.94
5126;BME280;63008;53.112;8.896;2023-08-30T10:04:48;100536.63;;;21.51;56.83
5126;BME280;63008;53.112;8.896;2023-08-30T10:06:50;100529.31;;;21.17;57.42
5126;BME280;63008;53.112;8.896;2023-08-30T10:08:52;100536.75;;;20.79;59.60
5126;BME280;63008;53.112;8.896;2023-08-30T10:10:54;100529.72;;;20.47;60.90
5126;BME280;63008;53.112;8.896;2023-08-30T10:12:56;100535.69;;;20.52;62.14
5126;BME280;63008;53.112;8.896;2023-08-30T10:14:57;100530.09;;;20.52;60.96
5126;BME280;63008;53.112;8.896;2023-08-30T10:17:03;100525.81;;;20.34;61.28
5126;BME280;63008;53.112;8.896;2023-08-30T10:19:14;100520.69;;;20.15;62.41
5126;BME280;63008;53.112;8.896;2023-08-30T10:21:18;100513.13;;;20.16;62.58
5126;BME280;63008;53.112;8.896;2023-08-30T10:23:20;100517.84;;;20.29;62.66
5126;BME280;63008;53.112;8.896;2023-08-30T10:25:25;100512.28;;;20.36;62.44
5126;BME280;63008;53.112;8.896;2023-08-30T10:27:28;100507.34;;;20.64;62.98
5126;BME280;63008;53.112;8.896;2023-08-30T10:29:32;100511.91;;;21.02;59.96
5126;BME280;63008;53.112;8.896;2023-08-30T10:31:34;100508.94;;;21.23;59.80
5126;BME280;63008;53.112;8.896;2023-08-30T10:33:52;100507.06;;;21.06;60.75
5126;BME280;63008;53.112;8.896;2023-08-30T10:36:02;100503.03;;;21.14;59.85
5126;BME280;63008;53.112;8.896;2023-08-30T10:38:05;100509.22;;;21.36;59.10
5126;BME280;63008;53.112;8.896;2023-08-30T10:40:06;100496.25;;;21.63;58.55
5126;BME280;63008;53.112;8.896;2023-08-30T10:42:14;100509.84;;;21.57;57.70
5126;BME280;63008;53.112;8.896;2023-08-30T10:44:17;100495.13;;;21.53;57.98